sensor_id;sensor_type;location;lat;lon;timestamp;temperature;humidity
20288;DHT22;10303;51.960;8.372;2024-02-21T00:01:06;12.00;99.90
20288;DHT22;10303;51.960;8.372;2024-02-21T00:03:32;12.00;99.90
20288;DHT22;10303;51.960;8.372;2024-02-21T00:05:57;12.00;99.90
20288;DHT22;10303;51.960;8.372;2024-02-21T00:08:24;12.00;99.90
20288;DHT22;10303;51.960;8.372;2024-02-21T00:10:50;11.80;99.90
20288;DHT22;10303;51.960;8.372;2024-02-21T00:13:15;11.70;99.90
20288;DHT22;10303;51.960;8.372;2024-02-21T00:15:41;11.90;99.90
20288;DHT22;10303;51.960;8.372;2024-02-21T00:18:07;11.90;99.90
20288;DHT22;10303;51.960;8.372;2024-02-21T00:20:33;11.80;99.90
20288;DHT22;10303;51.960;8.372;2024-02-21T00:22:59;11.90;99.90
20288;DHT22;10303;51.960;8.372;2024-02-21T00:25:25;11.70;99.90
20288;DHT22;10303;51.960;8.372;2024-02-21T00:27:51;11.70;99.90
20288;DHT22;10303;51.960;8.372;2024-02-21T00:30:16;11.80;99.90
20288;DHT22;10303;51.960;8.372;2024-02-21T00:32:42;11.90;99.90
20288;DHT22;10303;51.960;8.372;2024-02-21T00:35:08;11.90;99.90
20288;DHT22;10303;51.960;8.372;2024-02-21T00:37:34;11.90;99.90
20288;DHT22;10303;51.960;8.372;2024-02-21T00:40:00;11.90;99.90
20288;DHT22;10303;51.960;8.372;2024-02-21T00:42:26;11.90;99.90
20288;DHT22;10303;51.960;8.372;2024-02-21T00:44:52;12.00;99.90
20288;DHT22;10303;51.960;8.372;2024-02-21T00:47:17;12.10;99.90
20288;DHT22;10303;51.960;8.372;2024-02-21T00:49:43;12.10;99.90
20288;DHT22;10303;51.960;8.372;2024-02-21T00:52:09;12.10;99.90
20288;DHT22;10303;51.960;8.372;2024-02-21T00:54:35;12.00;99.90
20288;DHT22;10303;51.960;8.372;2024-02-21T00:57:01;12.10;99.90
20288;DHT22;10303;51.960;8.372;2024-02-21T00:59:27;12.00;99.90
20288;DHT22;10303;51.960;8.372;2024-02-21T01:01:53;12.30;99.90
20288;DHT22;10303;51.960;8.372;2024-02-21T01:04:18;12.10;99.90
20288;DHT22;10303;51.960;8.372;2024-02-21T01:06:44;12.10;99.90
20288;DHT22;10303;51.960;8.372;2024-02-21T01:09:13;12.10;99.90
20288;DHT22;10303;51.960;8.372;2024-02-21T01:11:39;12.20;99.90
20288;DHT22;10303;51.960;8.372;2024-02-21T01:14:05;12.20;99.90
20288;DHT22;10303;51.960;8.372;2024-02-21T01:16:31;12.20;99.90
20288;DHT22;10303;51.960;8.372;2024-02-21T01:18:57;12.10;99.90
20288;DHT22;10303;51.960;8.372;2024-02-21T01:21:23;12.10;99.90
20288;DHT22;10303;51.960;8.372;2024-02-21T01:23:49;12.10;99.90
20288;DHT22;10303;51.960;8.372;2024-02-21T01:26:15;12.20;99.90
20288;DHT22;10303;51.960;8.372;2024-02-21T01:28:41;12.20;99.90
20288;DHT22;10303;51.960;8.372;2024-02-21T01:31:08;12.20;99.90
20288;DHT22;10303;51.960;8.372;2024-02-21T01:33:33;12.20;99.90
20288;DHT22;10303;51.960;8.372;2024-02-21T01:36:04;12.20;99.90
20288;DHT22;10303;51.960;8.372;2024-02-21T01:38:34;12.20;99.90
20288;DHT22;10303;51.960;8.372;2024-02-21T01:41:00;12.10;99.90
20288;DHT22;10303;51.960;8.372;2024-02-21T01:43:27;12.10;99.90
20288;DHT22;10303;51.960;8.372;2024-02-21T01:45:55;12.20;99.90
20288;DHT22;10303;51.960;8.372;2024-02-21T01:48:22;12.20;99.90
20288;DHT22;10303;51.960;8.372;2024-02-21T01:50:49;12.10;99.90
20288;DHT22;10303;51.960;8.372;2024-02-21T01:53:19;12.10;99.90
20288;DHT22;10303;51.960;8.372;2024-02-21T01:55:48;12.20;99.90
20288;DHT22;10303;51.960;8.372;2024-02-21T01:58:15;12.20;99.90
20288;DHT22;10303;51.960;8.372;2024-02-21T02:00:45;12.30;99.90
20288;DHT22;10303;51.960;8.372;2024-02-21T02:03:12;12.20;99.90
20288;DHT22;10303;51.960;8.372;2024-02-21T02:05:44;12.20;99.90
20288;DHT22;10303;51.960;8.372;2024-02-21T02:08:13;12.20;99.90
20288;DHT22;10303;51.960;8.372;2024-02-21T02:10:40;12.20;99.90
20288;DHT22;10303;51.960;8.372;2024-02-21T02:13:07;12.20;99.90
20288;DHT22;10303;51.960;8.372;2024-02-21T02:15:47;12.20;99.90
20288;DHT22;10303;51.960;8.372;2024-02-21T02:18:15;12.20;99.90
20288;DHT22;10303;51.960;8.372;2024-02-21T02:20:43;12.10;99.90
20288;DHT22;10303;51.960;8.372;2024-02-21T02:25:48;12.20;99.90
20288;DHT22;10303;51.960;8.372;2024-02-21T02:28:14;12.20;99.90
20288;DHT22;10303;51.960;8.372;2024-02-21T02:30:41;12.20;99.90
20288;DHT22;10303;51.960;8.372;2024-02-21T02:33:07;12.20;99.90
20288;DHT22;10303;51.960;8.372;2024-02-21T02:35:33;12.20;99.90
20288;DHT22;10303;51.960;8.372;2024-02-21T02:38:00;12.20;99.90
20288;DHT22;10303;51.960;8.372;2024-02-21T02:40:26;12.10;99.90
20288;DHT22;10303;51.960;8.372;2024-02-21T02:42:52;12.10;99.90
20288;DHT22;10303;51.960;8.372;2024-02-21T02:45:21;12.10;99.90
20288;DHT22;10303;51.960;8.372;2024-02-21T02:47:49;12.10;99.90
20288;DHT22;10303;51.960;8.372;2024-02-21T02:50:15;12.20;99.90
20288;DHT22;10303;51.960;8.372;2024-02-21T02:52:41;12.10;99.90
20288;DHT22;10303;51.960;8.372;2024-02-21T02:55:07;12.10;99.90
20288;DHT22;10303;51.960;8.372;2024-02-21T02:57:33;12.20;99.90
20288;DHT22;10303;51.960;8.372;2024-02-21T02:59:59;12.20;99.90
20288;DHT22;10303;51.960;8.372;2024-02-21T03:02:25;12.30;99.90
20288;DHT22;10303;51.960;8.372;2024-02-21T03:04:50;12.30;99.90
20288;DHT22;10303;51.960;8.372;2024-02-21T03:07:16;12.30;99.90
20288;DHT22;10303;51.960;8.372;2024-02-21T03:09:42;12.30;99.90
20288;DHT22;10303;51.960;8.372;2024-02-21T03:12:09;12.30;99.90
20288;DHT22;10303;51.960;8.372;2024-02-21T03:14:35;12.30;99.90
20288;DHT22;10303;51.960;8.372;2024-02-21T03:17:01;12.40;99.90
20288;DHT22;10303;51.960;8.372;2024-02-21T03:19:28;12.40;99.90
20288;DHT22;10303;51.960;8.372;2024-02-21T03:21:55;12.40;99.90
20288;DHT22;10303;51.960;8.372;2024-02-21T03:24:21;12.40;99.90
20288;DHT22;10303;51.960;8.372;2024-02-21T03:26:47;12.40;99.90
20288;DHT22;10303;51.960;8.372;2024-02-21T03:29:16;12.40;99.90
20288;DHT22;10303;51.960;8.372;2024-02-21T03:31:42;12.40;99.90
20288;DHT22;10303;51.960;8.372;2024-02-21T03:34:10;12.40;99.90
20288;DHT22;10303;51.960;8.372;2024-02-21T03:36:36;12.40;99.90
20288;DHT22;10303;51.960;8.372;2024-02-21T03:39:02;12.30;99.90
20288;DHT22;10303;51.960;8.372;2024-02-21T03:41:29;12.30;99.90
20288;DHT22;10303;51.960;8.372;2024-02-21T03:43:55;12.40;99.90
20288;DHT22;10303;51.960;8.372;2024-02-21T03:46:21;12.40;99.90
20288;DHT22;10303;51.960;8.372;2024-02-21T03:48:47;12.40;99.90
20288;DHT22;10303;51.960;8.372;2024-02-21T03:51:13;12.40;99.90
20288;DHT22;10303;51.960;8.372;2024-02-21T03:53:40;12.50;99.90
20288;DHT22;10303;51.960;8.372;2024-02-21T03:56:06;12.40;99.90
20288;DHT22;10303;51.960;8.372;2024-02-21T03:58:33;12.30;99.90
20288;DHT22;10303;51.960;8.372;2024-02-21T04:01:02;12.30;99.90
20288;DHT22;10303;51.960;8.372;2024-02-21T04:03:30;12.20;99.90
20288;DHT22;10303;51.960;8.372;2024-02-21T04:05:56;12.30;99.90
20288;DHT22;10303;51.960;8.372;2024-02-21T04:08:23;12.30;99.90
20288;DHT22;10303;51.960;8.372;2024-02-21T04:10:49;12.20;99.90
20288;DHT22;10303;51.960;8.372;2024-02-21T04:13:15;12.20;99.90
20288;DHT22;10303;51.960;8.372;2024-02-21T04:15:41;11.70;99.90
20288;DHT22;10303;51.960;8.372;2024-02-21T04:18:07;11.80;99.90
20288;DHT22;10303;51.960;8.372;2024-02-21T04:20:34;11.80;99.90
20288;DHT22;10303;51.960;8.372;2024-02-21T04:23:00;11.80;99.90
20288;DHT22;10303;51.960;8.372;2024-02-21T04:25:26;11.90;99.90
20288;DHT22;10303;51.960;8.372;2024-02-21T04:27:52;12.00;99.90
20288;DHT22;10303;51.960;8.372;2024-02-21T04:30:18;12.00;99.90
20288;DHT22;10303;51.960;8.372;2024-02-21T04:32:44;12.00;99.90
20288;DHT22;10303;51.960;8.372;2024-02-21T04:35:10;12.00;99.90
20288;DHT22;10303;51.960;8.372;2024-02-21T04:37:36;11.90;99.90
20288;DHT22;10303;51.960;8.372;2024-02-21T04:40:02;12.00;99.90
20288;DHT22;10303;51.960;8.372;2024-02-21T04:42:28;11.90;99.90
20288;DHT22;10303;51.960;8.372;2024-02-21T04:44:54;12.10;99.90
20288;DHT22;10303;51.960;8.372;2024-02-21T04:47:20;12.00;99.90
20288;DHT22;10303;51.960;8.372;2024-02-21T04:49:46;12.00;99.90
20288;DHT22;10303;51.960;8.372;2024-02-21T04:52:12;12.00;99.90
20288;DHT22;10303;51.960;8.372;2024-02-21T04:54:38;12.00;99.90
20288;DHT22;10303;51.960;8.372;2024-02-21T04:57:04;12.10;99.90
20288;DHT22;10303;51.960;8.372;2024-02-21T04:59:30;12.10;99.90
20288;DHT22;10303;51.960;8.372;2024-02-21T05:01:56;12.20;99.90
20288;DHT22;10303;51.960;8.372;2024-02-21T05:04:22;12.00;99.90
20288;DHT22;10303;51.960;8.372;2024-02-21T05:06:48;12.10;99.90
20288;DHT22;10303;51.960;8.372;2024-02-21T05:09:14;12.10;99.90
20288;DHT22;10303;51.960;8.372;2024-02-21T05:11:40;12.10;99.90
20288;DHT22;10303;51.960;8.372;2024-02-21T05:14:06;12.10;99.90
20288;DHT22;10303;51.960;8.372;2024-02-21T05:16:32;12.10;99.90
20288;DHT22;10303;51.960;8.372;2024-02-21T05:18:58;12.20;99.90
20288;DHT22;10303;51.960;8.372;2024-02-21T05:21:24;12.10;99.90
20288;DHT22;10303;51.960;8.372;2024-02-21T05:23:51;12.10;99.90
20288;DHT22;10303;51.960;8.372;2024-02-21T05:26:29;12.10;99.90
20288;DHT22;10303;51.960;8.372;2024-02-21T05:28:55;12.10;99.90
20288;DHT22;10303;51.960;8.372;2024-02-21T05:31:21;12.10;99.90
20288;DHT22;10303;51.960;8.372;2024-02-21T05:33:49;12.00;99.90
20288;DHT22;10303;51.960;8.372;2024-02-21T05:36:15;11.90;99.90
20288;DHT22;10303;51.960;8.372;2024-02-21T05:38:41;11.90;99.90
20288;DHT22;10303;51.960;8.372;2024-02-21T05:41:07;11.80;99.90
20288;DHT22;10303;51.960;8.372;2024-02-21T05:43:33;11.80;99.90
20288;DHT22;10303;51.960;8.372;2024-02-21T05:45:59;11.80;99.90
20288;DHT22;10303;51.960;8.372;2024-02-21T05:48:25;11.80;99.90
20288;DHT22;10303;51.960;8.372;2024-02-21T05:50:51;11.90;99.90
20288;DHT22;10303;51.960;8.372;2024-02-21T05:53:17;11.80;99.90
20288;DHT22;10303;51.960;8.372;2024-02-21T05:55:43;11.80;99.90
20288;DHT22;10303;51.960;8.372;2024-02-21T05:58:10;11.80;99.90
20288;DHT22;10303;51.960;8.372;2024-02-21T06:00:39;11.70;99.90
20288;DHT22;10303;51.960;8.372;2024-02-21T06:03:05;11.80;99.90
20288;DHT22;10303;51.960;8.372;2024-02-21T06:05:37;11.80;99.90
20288;DHT22;10303;51.960;8.372;2024-02-21T06:08:04;11.80;99.90
20288;DHT22;10303;51.960;8.372;2024-02-21T06:10:30;11.90;99.90
20288;DHT22;10303;51.960;8.372;2024-02-21T06:12:56;12.00;99.90
20288;DHT22;10303;51.960;8.372;2024-02-21T06:15:22;11.90;99.90
20288;DHT22;10303;51.960;8.372;2024-02-21T06:17:48;12.00;99.90
20288;DHT22;10303;51.960;8.372;2024-02-21T06:20:16;12.00;99.90
20288;DHT22;10303;51.960;8.372;2024-02-21T06:22:42;12.00;99.90
20288;DHT22;10303;51.960;8.372;2024-02-21T06:25:08;12.20;99.90
20288;DHT22;10303;51.960;8.372;2024-02-21T06:27:34;12.10;99.90
20288;DHT22;10303;51.960;8.372;2024-02-21T06:30:00;12.00;99.90
20288;DHT22;10303;51.960;8.372;2024-02-21T06:32:26;12.00;99.90
20288;DHT22;10303;51.960;8.372;2024-02-21T06:34:52;11.90;99.90
20288;DHT22;10303;51.960;8.372;2024-02-21T06:37:17;11.90;99.90
20288;DHT22;10303;51.960;8.372;2024-02-21T06:39:43;12.00;99.90
20288;DHT22;10303;51.960;8.372;2024-02-21T06:42:09;12.00;99.90
20288;DHT22;10303;51.960;8.372;2024-02-21T06:44:35;12.00;99.90
20288;DHT22;10303;51.960;8.372;2024-02-21T06:47:06;12.10;99.90
20288;DHT22;10303;51.960;8.372;2024-02-21T06:49:33;12.10;99.90
20288;DHT22;10303;51.960;8.372;2024-02-21T06:51:59;12.20;99.90
20288;DHT22;10303;51.960;8.372;2024-02-21T06:54:25;12.20;99.90
20288;DHT22;10303;51.960;8.372;2024-02-21T06:56:51;12.20;99.90
20288;DHT22;10303;51.960;8.372;2024-02-21T06:59:17;12.30;99.90
20288;DHT22;10303;51.960;8.372;2024-02-21T07:01:47;12.20;99.90
20288;DHT22;10303;51.960;8.372;2024-02-21T07:04:14;12.30;99.90
20288;DHT22;10303;51.960;8.372;2024-02-21T07:06:40;12.30;99.90
20288;DHT22;10303;51.960;8.372;2024-02-21T07:09:06;12.30;99.90
20288;DHT22;10303;51.960;8.372;2024-02-21T07:11:32;12.40;99.90
20288;DHT22;10303;51.960;8.372;2024-02-21T07:13:58;12.20;99.90
20288;DHT22;10303;51.960;8.372;2024-02-21T07:16:23;12.30;99.90
20288;DHT22;10303;51.960;8.372;2024-02-21T07:18:49;12.20;99.90
20288;DHT22;10303;51.960;8.372;2024-02-21T07:21:15;12.30;99.90
20288;DHT22;10303;51.960;8.372;2024-02-21T07:23:41;12.30;99.90
20288;DHT22;10303;51.960;8.372;2024-02-21T07:26:07;12.30;99.90
20288;DHT22;10303;51.960;8.372;2024-02-21T07:28:33;12.30;99.90
20288;DHT22;10303;51.960;8.372;2024-02-21T07:31:00;12.30;99.90
20288;DHT22;10303;51.960;8.372;2024-02-21T07:33:26;12.30;99.90
20288;DHT22;10303;51.960;8.372;2024-02-21T07:35:51;12.30;99.90
20288;DHT22;10303;51.960;8.372;2024-02-21T07:38:17;12.30;99.90
20288;DHT22;10303;51.960;8.372;2024-02-21T07:40:47;12.30;99.90
20288;DHT22;10303;51.960;8.372;2024-02-21T07:43:12;12.40;99.90
20288;DHT22;10303;51.960;8.372;2024-02-21T07:45:38;12.40;99.90
20288;DHT22;10303;51.960;8.372;2024-02-21T07:48:06;12.50;99.90
20288;DHT22;10303;51.960;8.372;2024-02-21T07:50:32;12.50;99.90
20288;DHT22;10303;51.960;8.372;2024-02-21T07:52:58;12.50;99.90
20288;DHT22;10303;51.960;8.372;2024-02-21T07:55:24;12.60;99.90
20288;DHT22;10303;51.960;8.372;2024-02-21T07:57:49;12.60;99.90
20288;DHT22;10303;51.960;8.372;2024-02-21T08:00:16;12.60;99.90
20288;DHT22;10303;51.960;8.372;2024-02-21T08:02:48;12.70;99.90
20288;DHT22;10303;51.960;8.372;2024-02-21T08:05:14;12.70;99.90
20288;DHT22;10303;51.960;8.372;2024-02-21T08:07:40;12.70;99.90
20288;DHT22;10303;51.960;8.372;2024-02-21T08:10:07;12.70;99.90
20288;DHT22;10303;51.960;8.372;2024-02-21T08:12:34;12.70;99.90
20288;DHT22;10303;51.960;8.372;2024-02-21T08:15:00;12.70;99.90
20288;DHT22;10303;51.960;8.372;2024-02-21T08:17:26;12.60;99.90
20288;DHT22;10303;51.960;8.372;2024-02-21T08:19:52;12.70;99.90
20288;DHT22;10303;51.960;8.372;2024-02-21T08:22:18;12.60;99.90
20288;DHT22;10303;51.960;8.372;2024-02-21T08:24:44;12.70;99.90
20288;DHT22;10303;51.960;8.372;2024-02-21T08:27:09;12.60;99.90
20288;DHT22;10303;51.960;8.372;2024-02-21T08:29:35;12.70;99.90
20288;DHT22;10303;51.960;8.372;2024-02-21T08:32:01;12.80;99.90
20288;DHT22;10303;51.960;8.372;2024-02-21T08:34:27;12.80;99.90
20288;DHT22;10303;51.960;8.372;2024-02-21T08:36:55;12.80;99.90
20288;DHT22;10303;51.960;8.372;2024-02-21T08:39:21;12.90;99.90
20288;DHT22;10303;51.960;8.372;2024-02-21T08:41:47;12.90;99.90
20288;DHT22;10303;51.960;8.372;2024-02-21T08:44:13;12.90;99.90
20288;DHT22;10303;51.960;8.372;2024-02-21T08:46:39;12.90;99.90
20288;DHT22;10303;51.960;8.372;2024-02-21T08:49:06;13.00;99.90
20288;DHT22;10303;51.960;8.372;2024-02-21T08:51:32;13.00;99.90
20288;DHT22;10303;51.960;8.372;2024-02-21T08:53:58;13.00;99.90
20288;DHT22;10303;51.960;8.372;2024-02-21T08:56:25;13.00;99.90
20288;DHT22;10303;51.960;8.372;2024-02-21T08:58:51;13.10;99.90
20288;DHT22;10303;51.960;8.372;2024-02-21T09:01:17;13.20;99.90
20288;DHT22;10303;51.960;8.372;2024-02-21T09:03:43;13.10;99.90
20288;DHT22;10303;51.960;8.372;2024-02-21T09:06:10;13.20;99.90
20288;DHT22;10303;51.960;8.372;2024-02-21T09:08:38;13.20;99.90
20288;DHT22;10303;51.960;8.372;2024-02-21T09:11:06;13.30;99.90
20288;DHT22;10303;51.960;8.372;2024-02-21T09:13:32;13.30;99.90
20288;DHT22;10303;51.960;8.372;2024-02-21T09:15:58;13.30;99.90
20288;DHT22;10303;51.960;8.372;2024-02-21T09:18:24;13.40;99.90
20288;DHT22;10303;51.960;8.372;2024-02-21T09:20:49;13.40;99.90
20288;DHT22;10303;51.960;8.372;2024-02-21T09:23:16;13.40;99.90
20288;DHT22;10303;51.960;8.372;2024-02-21T09:25:42;13.40;99.90
20288;DHT22;10303;51.960;8.372;2024-02-21T09:28:08;13.50;99.90
20288;DHT22;10303;51.960;8.372;2024-02-21T09:30:34;13.50;99.90
20288;DHT22;10303;51.960;8.372;2024-02-21T09:32:59;13.60;99.90
20288;DHT22;10303;51.960;8.372;2024-02-21T09:35:27;13.60;99.90
20288;DHT22;10303;51.960;8.372;2024-02-21T09:37:53;13.60;99.90
20288;DHT22;10303;51.960;8.372;2024-02-21T09:40:20;13.60;99.90
20288;DHT22;10303;51.960;8.372;2024-02-21T09:42:48;13.60;99.90
20288;DHT22;10303;51.960;8.372;2024-02-21T09:45:21;13.70;99.90
20288;DHT22;10303;51.960;8.372;2024-02-21T09:50:40;13.70;99.90
20288;DHT22;10303;51.960;8.372;2024-02-21T09:53:07;13.70;99.90
20288;DHT22;10303;51.960;8.372;2024-02-21T09:55:33;13.80;99.90
20288;DHT22;10303;51.960;8.372;2024-02-21T09:58:04;13.80;99.90
20288;DHT22;10303;51.960;8.372;2024-02-21T10:00:30;13.80;99.90
20288;DHT22;10303;51.960;8.372;2024-02-21T10:02:56;13.80;99.90
20288;DHT22;10303;51.960;8.372;2024-02-21T10:05:23;13.80;99.90
20288;DHT22;10303;51.960;8.372;2024-02-21T10:07:51;13.90;99.90
20288;DHT22;10303;51.960;8.372;2024-02-21T10:10:17;13.90;99.90
20288;DHT22;10303;51.960;8.372;2024-02-21T10:12:50;13.90;99.90
20288;DHT22;10303;51.960;8.372;2024-02-21T10:15:24;13.90;99.90
20288;DHT22;10303;51.960;8.372;2024-02-21T10:17:59;13.90;99.90
20288;DHT22;10303;51.960;8.372;2024-02-21T10:20:27;13.90;99.90
20288;DHT22;10303;51.960;8.372;2024-02-21T10:23:02;14.00;99.90
20288;DHT22;10303;51.960;8.372;2024-02-21T10:25:38;13.90;99.90
20288;DHT22;10303;51.960;8.372;2024-02-21T10:28:07;13.90;99.90
20288;DHT22;10303;51.960;8.372;2024-02-21T10:30:33;14.00;99.90
20288;DHT22;10303;51.960;8.372;2024-02-21T10:32:59;14.00;99.90
20288;DHT22;10303;51.960;8.372;2024-02-21T10:35:29;14.00;99.90
20288;DHT22;10303;51.960;8.372;2024-02-21T10:37:56;14.00;99.90
20288;DHT22;10303;51.960;8.372;2024-02-21T10:40:24;14.00;99.90
20288;DHT22;10303;51.960;8.372;2024-02-21T10:43:00;14.00;99.90
20288;DHT22;10303;51.960;8.372;2024-02-21T10:45:36;13.90;99.90
20288;DHT22;10303;51.960;8.372;2024-02-21T10:50:47;13.90;99.90
20288;DHT22;10303;51.960;8.372;2024-02-21T10:53:45;13.90;99.90
20288;DHT22;10303;51.960;8.372;2024-02-21T10:56:28;13.90;99.90
20288;DHT22;10303;51.960;8.372;2024-02-21T10:58:57;13.90;99.90
20288;DHT22;10303;51.960;8.372;2024-02-21T11:01:26;13.90;99.90
20288;DHT22;10303;51.960;8.372;2024-02-21T11:03:56;13.90;99.90
20288;DHT22;10303;51.960;8.372;2024-02-21T11:06:25;13.90;99.90
20288;DHT22;10303;51.960;8.372;2024-02-21T11:09:07;13.90;99.90
20288;DHT22;10303;51.960;8.372;2024-02-21T11:11:42;13.80;99.90
20288;DHT22;10303;51.960;8.372;2024-02-21T11:14:17;13.70;99.90
20288;DHT22;10303;51.960;8.372;2024-02-21T11:16:44;13.70;99.90
20288;DHT22;10303;51.960;8.372;2024-02-21T11:19:22;13.70;99.90
20288;DHT22;10303;51.960;8.372;2024-02-21T11:21:51;13.70;99.90
20288;DHT22;10303;51.960;8.372;2024-02-21T11:24:31;13.80;99.90
20288;DHT22;10303;51.960;8.372;2024-02-21T11:27:21;13.80;99.90
20288;DHT22;10303;51.960;8.372;2024-02-21T11:29:57;13.90;99.90
20288;DHT22;10303;51.960;8.372;2024-02-21T11:32:25;13.90;99.90
20288;DHT22;10303;51.960;8.372;2024-02-21T11:34:59;13.80;99.90
20288;DHT22;10303;51.960;8.372;2024-02-21T11:37:30;13.80;99.90
20288;DHT22;10303;51.960;8.372;2024-02-21T11:40:09;13.80;99.90
20288;DHT22;10303;51.960;8.372;2024-02-21T11:42:35;13.80;99.90
20288;DHT22;10303;51.960;8.372;2024-02-21T11:45:01;13.80;99.90
20288;DHT22;10303;51.960;8.372;2024-02-21T11:47:30;13.70;99.90
20288;DHT22;10303;51.960;8.372;2024-02-21T11:49:56;13.70;99.90
20288;DHT22;10303;51.960;8.372;2024-02-21T11:52:23;13.70;99.90
20288;DHT22;10303;51.960;8.372;2024-02-21T11:54:53;13.80;99.90
20288;DHT22;10303;51.960;8.372;2024-02-21T11:57:22;13.70;99.90
20288;DHT22;10303;51.960;8.372;2024-02-21T11:59:48;13.80;99.90
20288;DHT22;10303;51.960;8.372;2024-02-21T12:02:15;13.80;99.90
20288;DHT22;10303;51.960;8.372;2024-02-21T12:04:43;13.80;99.90
20288;DHT22;10303;51.960;8.372;2024-02-21T12:07:10;13.70;99.90
20288;DHT22;10303;51.960;8.372;2024-02-21T12:09:36;13.70;99.90
20288;DHT22;10303;51.960;8.372;2024-02-21T12:12:03;13.70;99.90
20288;DHT22;10303;51.960;8.372;2024-02-21T12:14:32;13.70;99.90
20288;DHT22;10303;51.960;8.372;2024-02-21T12:17:00;13.50;99.90
20288;DHT22;10303;51.960;8.372;2024-02-21T12:19:29;13.50;99.90
20288;DHT22;10303;51.960;8.372;2024-02-21T12:21:58;13.40;99.90
20288;DHT22;10303;51.960;8.372;2024-02-21T12:24:27;13.70;99.90
20288;DHT22;10303;51.960;8.372;2024-02-21T12:26:55;13.50;99.90
20288;DHT22;10303;51.960;8.372;2024-02-21T12:29:25;13.40;99.90
20288;DHT22;10303;51.960;8.372;2024-02-21T12:31:51;13.30;99.90
20288;DHT22;10303;51.960;8.372;2024-02-21T12:34:19;13.30;99.90
20288;DHT22;10303;51.960;8.372;2024-02-21T12:36:45;13.20;99.90
20288;DHT22;10303;51.960;8.372;2024-02-21T12:39:14;13.10;99.90
20288;DHT22;10303;51.960;8.372;2024-02-21T12:41:42;13.10;99.90
20288;DHT22;10303;51.960;8.372;2024-02-21T12:44:10;13.20;99.90
20288;DHT22;10303;51.960;8.372;2024-02-21T12:46:39;13.30;99.90
20288;DHT22;10303;51.960;8.372;2024-02-21T12:49:08;13.40;99.90
20288;DHT22;10303;51.960;8.372;2024-02-21T12:51:35;13.40;99.90
20288;DHT22;10303;51.960;8.372;2024-02-21T12:54:01;13.30;99.90
20288;DHT22;10303;51.960;8.372;2024-02-21T12:56:30;13.30;99.90
20288;DHT22;10303;51.960;8.372;2024-02-21T12:58:57;13.40;99.90
20288;DHT22;10303;51.960;8.372;2024-02-21T13:01:23;13.40;99.90
20288;DHT22;10303;51.960;8.372;2024-02-21T13:03:49;13.50;99.90
20288;DHT22;10303;51.960;8.372;2024-02-21T13:06:15;13.50;99.90
20288;DHT22;10303;51.960;8.372;2024-02-21T13:08:41;13.60;99.90
20288;DHT22;10303;51.960;8.372;2024-02-21T13:11:07;13.60;99.90
20288;DHT22;10303;51.960;8.372;2024-02-21T13:13:33;13.60;99.90
20288;DHT22;10303;51.960;8.372;2024-02-21T13:15:59;13.60;99.90
20288;DHT22;10303;51.960;8.372;2024-02-21T13:18:25;13.60;99.90
20288;DHT22;10303;51.960;8.372;2024-02-21T13:20:51;13.70;99.90
20288;DHT22;10303;51.960;8.372;2024-02-21T13:23:17;13.80;99.90
20288;DHT22;10303;51.960;8.372;2024-02-21T13:25:43;13.80;99.90
20288;DHT22;10303;51.960;8.372;2024-02-21T13:28:12;13.90;99.90
20288;DHT22;10303;51.960;8.372;2024-02-21T13:30:39;13.80;99.90
20288;DHT22;10303;51.960;8.372;2024-02-21T13:33:06;13.90;99.90
20288;DHT22;10303;51.960;8.372;2024-02-21T13:35:32;13.90;99.90
20288;DHT22;10303;51.960;8.372;2024-02-21T13:37:58;13.90;99.90
20288;DHT22;10303;51.960;8.372;2024-02-21T13:40:24;14.00;99.90
20288;DHT22;10303;51.960;8.372;2024-02-21T13:42:51;14.00;99.90
20288;DHT22;10303;51.960;8.372;2024-02-21T13:45:17;14.00;99.90
20288;DHT22;10303;51.960;8.372;2024-02-21T13:47:43;14.00;99.90
20288;DHT22;10303;51.960;8.372;2024-02-21T13:50:09;14.00;99.90
20288;DHT22;10303;51.960;8.372;2024-02-21T13:52:40;13.90;99.90
20288;DHT22;10303;51.960;8.372;2024-02-21T13:55:06;13.90;99.90
20288;DHT22;10303;51.960;8.372;2024-02-21T13:57:38;13.90;99.90
20288;DHT22;10303;51.960;8.372;2024-02-21T14:00:05;13.90;99.90
20288;DHT22;10303;51.960;8.372;2024-02-21T14:02:37;13.90;99.90
20288;DHT22;10303;51.960;8.372;2024-02-21T14:05:05;13.90;99.90
20288;DHT22;10303;51.960;8.372;2024-02-21T14:07:32;13.90;99.90
20288;DHT22;10303;51.960;8.372;2024-02-21T14:10:01;13.90;99.90
20288;DHT22;10303;51.960;8.372;2024-02-21T14:12:27;13.90;99.90
20288;DHT22;10303;51.960;8.372;2024-02-21T14:14:53;14.00;99.90
20288;DHT22;10303;51.960;8.372;2024-02-21T14:17:18;14.00;99.90
20288;DHT22;10303;51.960;8.372;2024-02-21T14:19:45;14.00;99.90
20288;DHT22;10303;51.960;8.372;2024-02-21T14:22:11;14.00;99.90
20288;DHT22;10303;51.960;8.372;2024-02-21T14:24:37;14.10;99.90
20288;DHT22;10303;51.960;8.372;2024-02-21T14:27:03;14.10;99.90
20288;DHT22;10303;51.960;8.372;2024-02-21T14:29:30;14.20;99.90
20288;DHT22;10303;51.960;8.372;2024-02-21T14:31:55;14.20;99.90
20288;DHT22;10303;51.960;8.372;2024-02-21T14:34:21;14.20;99.90
20288;DHT22;10303;51.960;8.372;2024-02-21T14:36:47;14.30;99.90
20288;DHT22;10303;51.960;8.372;2024-02-21T14:39:14;14.30;99.90
20288;DHT22;10303;51.960;8.372;2024-02-21T14:41:40;14.30;99.90
20288;DHT22;10303;51.960;8.372;2024-02-21T14:44:06;14.40;99.90
20288;DHT22;10303;51.960;8.372;2024-02-21T14:46:32;14.40;99.90
20288;DHT22;10303;51.960;8.372;2024-02-21T14:48:58;14.40;99.90
20288;DHT22;10303;51.960;8.372;2024-02-21T14:51:24;14.40;99.90
20288;DHT22;10303;51.960;8.372;2024-02-21T14:53:50;14.40;99.90
20288;DHT22;10303;51.960;8.372;2024-02-21T14:56:16;14.40;99.90
20288;DHT22;10303;51.960;8.372;2024-02-21T14:58:43;14.40;99.90
20288;DHT22;10303;51.960;8.372;2024-02-21T15:01:09;14.40;99.90
20288;DHT22;10303;51.960;8.372;2024-02-21T15:03:35;14.40;99.90
20288;DHT22;10303;51.960;8.372;2024-02-21T15:06:02;14.40;99.90
20288;DHT22;10303;51.960;8.372;2024-02-21T15:08:28;14.40;99.90
20288;DHT22;10303;51.960;8.372;2024-02-21T15:10:54;14.40;99.90
20288;DHT22;10303;51.960;8.372;2024-02-21T15:13:20;14.40;99.90
20288;DHT22;10303;51.960;8.372;2024-02-21T15:15:48;14.40;99.90
20288;DHT22;10303;51.960;8.372;2024-02-21T15:18:14;14.40;99.90
20288;DHT22;10303;51.960;8.372;2024-02-21T15:20:40;14.40;99.90
20288;DHT22;10303;51.960;8.372;2024-02-21T15:23:07;14.30;99.90
20288;DHT22;10303;51.960;8.372;2024-02-21T15:25:32;14.30;99.90
20288;DHT22;10303;51.960;8.372;2024-02-21T15:27:59;14.30;99.90
20288;DHT22;10303;51.960;8.372;2024-02-21T15:30:25;14.30;99.90
20288;DHT22;10303;51.960;8.372;2024-02-21T15:32:53;14.30;99.90
20288;DHT22;10303;51.960;8.372;2024-02-21T15:35:21;14.30;99.90
20288;DHT22;10303;51.960;8.372;2024-02-21T15:37:47;14.30;99.90